Time;durP1;ratioP1;P1;durP2;ratioP2;P2;SDS_P1;SDS_P2;PMS_P1;PMS_P2;Temp;Humidity;BMP_temperature;BMP_pressure;BME280_temperature;BME280_humidity;BME280_pressure;Samples;Min_cycle;Max_cycle;Signal;HPM_P1;HPM_P2
2022/03/28 00:00:39;;;;;;;24.60;5.95;;;;;;;;;;5064945;28;20020;-68
2022/03/28 00:03:05;;;;;;;23.25;6.40;;;;;;;;;;5061147;28;20468;-69
2022/03/28 00:05:30;;;;;;;22.60;6.65;;;;;;;;;;5062907;28;20024;-68
2022/03/28 00:07:57;;;;;;;20.73;5.43;;;;;;;;;;5062892;28;20051;-68
2022/03/28 00:10:22;;;;;;;21.10;5.85;;;;;;;;;;5045677;28;20297;-68
2022/03/28 00:12:48;;;;;;;19.42;5.95;;;;;;;;;;5065299;28;20023;-68
2022/03/28 00:15:13;;;;;;;19.00;6.22;;;;;;;;;;5062059;28;20031;-68
2022/03/28 00:17:38;;;;;;;22.98;6.43;;;;;;;;;;5062795;28;20325;-68
2022/03/28 00:20:05;;;;;;;22.10;6.45;;;;;;;;;;5061436;28;20025;-68
2022/03/28 00:22:30;;;;;;;21.70;5.93;;;;;;;;;;5044487;28;20021;-68
2022/03/28 00:24:55;;;;;;;19.42;6.47;;;;;;;;;;5062403;28;20025;-69
2022/03/28 00:27:21;;;;;;;23.83;6.90;;;;;;;;;;5063498;28;20100;-67
2022/03/28 00:29:46;;;;;;;20.77;6.15;;;;;;;;;;5066645;28;20131;-68
2022/03/28 00:32:11;;;;;;;27.50;7.05;;;;;;;;;;5061545;28;20348;-68
2022/03/28 00:34:37;;;;;;;27.27;6.43;;;;;;;;;;5065339;28;20024;-68
2022/03/28 00:37:04;;;;;;;20.83;6.72;;;;;;;;;;5043426;28;20025;-68
2022/03/28 00:39:29;;;;;;;21.60;6.30;;;;;;;;;;5063628;28;20016;-68
2022/03/28 00:41:54;;;;;;;22.45;6.55;;;;;;;;;;5066683;28;20498;-69
2022/03/28 00:44:20;;;;;;;21.95;6.10;;;;;;;;;;5064942;28;20583;-68
2022/03/28 00:46:46;;;;;;;26.63;6.97;;;;;;;;;;5061952;28;20454;-69
2022/03/28 00:49:11;;;;;;;20.95;6.15;;;;;;;;;;5046408;28;20035;-69
2022/03/28 00:51:36;;;;;;;22.83;6.53;;;;;;;;;;5065602;28;20021;-68
2022/03/28 00:54:02;;;;;;;20.27;5.82;;;;;;;;;;5065508;28;20394;-69
2022/03/28 00:56:28;;;;;;;17.92;6.05;;;;;;;;;;5063172;28;20115;-68
2022/03/28 00:58:54;;;;;;;25.70;6.18;;;;;;;;;;5064682;28;20392;-68
2022/03/28 01:01:19;;;;;;;23.92;6.43;;;;;;;;;;5063499;28;20043;-69
2022/03/28 01:03:44;;;;;;;22.55;6.85;;;;;;;;;;5061137;28;20028;-68
2022/03/28 01:06:10;;;;;;;26.02;6.97;;;;;;;;;;5057955;28;20209;-68
2022/03/28 01:08:35;;;;;;;22.27;6.70;;;;;;;;;;5062052;28;20055;-69
2022/03/28 01:11:02;;;;;;;22.20;6.55;;;;;;;;;;5063686;28;20048;-68
2022/03/28 01:13:28;;;;;;;18.70;5.88;;;;;;;;;;5059030;28;20192;-68
2022/03/28 01:15:53;;;;;;;21.23;6.80;;;;;;;;;;5063462;28;20901;-68
2022/03/28 01:18:19;;;;;;;16.70;6.07;;;;;;;;;;5060358;28;20021;-68
2022/03/28 01:20:44;;;;;;;23.65;6.20;;;;;;;;;;5063570;28;20852;-68
2022/03/28 01:23:10;;;;;;;20.13;6.72;;;;;;;;;;5059091;28;20425;-68
2022/03/28 01:25:36;;;;;;;21.10;6.47;;;;;;;;;;5062782;28;20545;-69
2022/03/28 01:28:01;;;;;;;21.08;6.40;;;;;;;;;;5063976;28;20025;-68
2022/03/28 01:30:28;;;;;;;23.17;6.18;;;;;;;;;;5062555;28;20750;-68
2022/03/28 01:32:54;;;;;;;24.15;7.05;;;;;;;;;;5060307;28;20376;-68
2022/03/28 01:35:26;;;;;;;19.42;7.22;;;;;;;;;;5061882;28;20024;-68
2022/03/28 01:37:52;;;;;;;20.65;6.75;;;;;;;;;;5062582;28;20016;-68
2022/03/28 01:40:17;;;;;;;25.92;7.35;;;;;;;;;;5059776;28;20024;-69
2022/03/28 01:42:43;;;;;;;19.92;7.18;;;;;;;;;;5062609;28;20013;-69
2022/03/28 01:45:08;;;;;;;23.40;6.78;;;;;;;;;;5060847;28;20020;-67
2022/03/28 01:47:34;;;;;;;22.48;7.93;;;;;;;;;;5059113;28;20017;-68
2022/03/28 01:49:59;;;;;;;23.90;7.90;;;;;;;;;;5064218;28;20021;-68
2022/03/28 01:52:24;;;;;;;22.20;8.52;;;;;;;;;;5058441;28;20086;-69
2022/03/28 01:54:49;;;;;;;27.27;7.88;;;;;;;;;;5061583;28;20086;-69
2022/03/28 01:57:15;;;;;;;25.38;7.82;;;;;;;;;;5060487;28;20033;-69
2022/03/28 01:59:40;;;;;;;19.48;6.85;;;;;;;;;;5062194;28;20120;-68
2022/03/28 02:02:05;;;;;;;18.40;6.70;;;;;;;;;;5059885;28;20032;-68
2022/03/28 02:04:32;;;;;;;26.33;7.65;;;;;;;;;;5062342;28;20853;-69
2022/03/28 02:06:57;;;;;;;24.48;7.22;;;;;;;;;;5060253;28;20093;-69
2022/03/28 02:09:22;;;;;;;23.48;6.68;;;;;;;;;;5059144;28;20529;-69
2022/03/28 02:11:47;;;;;;;24.17;7.25;;;;;;;;;;5062632;28;20048;-70
2022/03/28 02:14:13;;;;;;;20.20;7.40;;;;;;;;;;5060990;28;20071;-67
2022/03/28 02:16:39;;;;;;;23.35;7.22;;;;;;;;;;5061526;28;20036;-69
2022/03/28 02:19:05;;;;;;;23.88;7.63;;;;;;;;;;5043828;28;20033;-69
2022/03/28 02:21:30;;;;;;;21.50;7.90;;;;;;;;;;5056461;28;20113;-70
2022/03/28 02:23:55;;;;;;;19.30;7.93;;;;;;;;;;5061051;28;20060;-69
2022/03/28 02:26:20;;;;;;;25.52;8.07;;;;;;;;;;5060134;28;20031;-69
2022/03/28 02:28:47;;;;;;;20.65;7.88;;;;;;;;;;5062913;28;20064;-69
2022/03/28 02:31:13;;;;;;;18.10;7.05;;;;;;;;;;5066723;28;20066;-70
2022/03/28 02:33:38;;;;;;;21.55;7.80;;;;;;;;;;5059674;28;20020;-68
2022/03/28 02:36:04;;;;;;;18.13;6.70;;;;;;;;;;5060788;28;20432;-67
2022/03/28 02:38:38;;;;;;;24.65;8.05;;;;;;;;;;5139194;27;20404;-70
2022/03/28 02:41:04;;;;;;;21.83;8.10;;;;;;;;;;5140936;27;20023;-68
2022/03/28 02:43:29;;;;;;;22.75;7.40;;;;;;;;;;5120621;27;20502;-69
2022/03/28 02:45:54;;;;;;;20.80;7.53;;;;;;;;;;5141531;27;20319;-69
2022/03/28 02:48:20;;;;;;;27.52;7.82;;;;;;;;;;5138165;27;20110;-69
2022/03/28 02:50:45;;;;;;;23.48;7.28;;;;;;;;;;5119865;27;20342;-69
2022/03/28 02:53:11;;;;;;;20.48;7.82;;;;;;;;;;5136317;27;20468;-70
2022/03/28 02:55:37;;;;;;;22.90;8.00;;;;;;;;;;5138989;27;20328;-70
2022/03/28 02:58:02;;;;;;;22.70;7.78;;;;;;;;;;5139271;27;20027;-69
2022/03/28 03:00:27;;;;;;;19.35;7.72;;;;;;;;;;5138005;27;20038;-71
2022/03/28 03:02:53;;;;;;;25.10;7.88;;;;;;;;;;5138450;27;20034;-71
2022/03/28 03:05:18;;;;;;;19.92;7.07;;;;;;;;;;5145740;27;20041;-71
2022/03/28 03:07:43;;;;;;;20.70;7.25;;;;;;;;;;5141485;27;20075;-70
2022/03/28 03:10:09;;;;;;;23.35;8.02;;;;;;;;;;5137622;27;20477;-70
2022/03/28 03:12:34;;;;;;;19.77;7.30;;;;;;;;;;5139602;27;20460;-70
2022/03/28 03:15:00;;;;;;;22.45;7.50;;;;;;;;;;5141022;27;20027;-70
2022/03/28 03:17:25;;;;;;;20.17;7.38;;;;;;;;;;5135869;27;20027;-70
2022/03/28 03:19:51;;;;;;;24.50;7.75;;;;;;;;;;5140092;27;20451;-70
2022/03/28 03:22:17;;;;;;;22.73;8.18;;;;;;;;;;5138111;27;20492;-68
2022/03/28 03:24:42;;;;;;;20.63;8.52;;;;;;;;;;5101151;27;20303;-69
2022/03/28 03:27:08;;;;;;;19.55;7.70;;;;;;;;;;5138485;27;20031;-70
2022/03/28 03:29:34;;;;;;;25.60;8.40;;;;;;;;;;5138136;27;20168;-68
2022/03/28 03:31:59;;;;;;;19.00;7.50;;;;;;;;;;5137767;27;20547;-68
2022/03/28 03:34:24;;;;;;;21.63;7.78;;;;;;;;;;5103648;27;20034;-69
2022/03/28 03:36:49;;;;;;;16.20;7.60;;;;;;;;;;5151479;27;20047;-69
2022/03/28 03:39:15;;;;;;;20.60;8.27;;;;;;;;;;5158711;27;20353;-69
2022/03/28 03:41:40;;;;;;;21.58;8.30;;;;;;;;;;5158021;27;20362;-70
2022/03/28 03:44:06;;;;;;;22.08;8.07;;;;;;;;;;5129159;27;20038;-68
2022/03/28 03:46:31;;;;;;;20.33;7.80;;;;;;;;;;5141856;27;20022;-70
2022/03/28 03:48:57;;;;;;;25.02;9.02;;;;;;;;;;5151549;27;20040;-70
2022/03/28 03:51:22;;;;;;;25.33;9.38;;;;;;;;;;5087194;27;20136;-69
2022/03/28 03:53:48;;;;;;;24.10;9.55;;;;;;;;;;5088244;27;20425;-69
2022/03/28 03:56:13;;;;;;;23.90;10.15;;;;;;;;;;5108900;27;20034;-70
2022/03/28 03:58:38;;;;;;;26.80;10.88;;;;;;;;;;5125339;27;20538;-69
2022/03/28 04:01:04;;;;;;;27.13;10.57;;;;;;;;;;5125704;27;20461;-69
2022/03/28 04:03:29;;;;;;;24.85;12.20;;;;;;;;;;5120113;27;20030;-69
2022/03/28 04:05:55;;;;;;;26.77;12.25;;;;;;;;;;5146462;27;20102;-69
2022/03/28 04:08:20;;;;;;;28.10;13.00;;;;;;;;;;5144842;27;20014;-69
2022/03/28 04:10:46;;;;;;;23.75;12.68;;;;;;;;;;5110069;27;21056;-69
2022/03/28 04:13:13;;;;;;;22.63;13.10;;;;;;;;;;5126824;27;20015;-68
2022/03/28 04:15:38;;;;;;;20.75;12.23;;;;;;;;;;5125992;27;20024;-68
2022/03/28 04:18:04;;;;;;;20.42;11.77;;;;;;;;;;5123583;27;20491;-69
2022/03/28 04:20:29;;;;;;;24.27;12.95;;;;;;;;;;5122392;27;20294;-69
2022/03/28 04:22:55;;;;;;;28.20;13.63;;;;;;;;;;5124599;27;20485;-68
2022/03/28 04:25:21;;;;;;;26.08;13.30;;;;;;;;;;5106503;27;20019;-68
2022/03/28 04:27:46;;;;;;;25.00;14.60;;;;;;;;;;5124924;27;20665;-69
2022/03/28 04:30:12;;;;;;;33.47;15.48;;;;;;;;;;5124563;27;20488;-68
2022/03/28 04:32:37;;;;;;;23.77;13.18;;;;;;;;;;5103062;27;20015;-69
2022/03/28 04:35:03;;;;;;;22.30;13.43;;;;;;;;;;5125619;27;20326;-68
2022/03/28 04:37:33;;;;;;;27.33;15.15;;;;;;;;;;5100616;27;20116;-68
2022/03/28 04:39:58;;;;;;;23.45;14.00;;;;;;;;;;5123039;27;20486;-69
2022/03/28 04:42:24;;;;;;;29.02;15.18;;;;;;;;;;5124435;27;20022;-69
2022/03/28 04:44:50;;;;;;;27.30;15.27;;;;;;;;;;5089230;27;20023;-68
2022/03/28 04:47:16;;;;;;;27.42;14.98;;;;;;;;;;5103167;27;20019;-69
2022/03/28 04:49:41;;;;;;;27.95;15.82;;;;;;;;;;5104795;27;20485;-69
2022/03/28 04:52:06;;;;;;;23.15;15.10;;;;;;;;;;5103708;27;20110;-69
2022/03/28 04:54:31;;;;;;;27.08;16.38;;;;;;;;;;5104383;27;20485;-70
2022/03/28 04:56:57;;;;;;;27.90;17.15;;;;;;;;;;5124715;27;20111;-69
2022/03/28 04:59:22;;;;;;;26.13;16.30;;;;;;;;;;5124837;27;20038;-70
2022/03/28 05:01:47;;;;;;;28.55;17.90;;;;;;;;;;5118591;27;20035;-68
2022/03/28 05:04:13;;;;;;;26.55;17.65;;;;;;;;;;5087939;27;20014;-68
2022/03/28 05:06:38;;;;;;;30.88;18.30;;;;;;;;;;5111996;27;20031;-69
2022/03/28 05:09:03;;;;;;;31.58;18.58;;;;;;;;;;5142394;27;20018;-68
2022/03/28 05:11:30;;;;;;;31.73;19.10;;;;;;;;;;5125925;27;20023;-69
2022/03/28 05:13:55;;;;;;;36.80;20.15;;;;;;;;;;5125325;27;20051;-69
2022/03/28 05:16:21;;;;;;;32.33;20.65;;;;;;;;;;5126492;27;20061;-68
2022/03/28 05:18:46;;;;;;;29.55;20.17;;;;;;;;;;5122764;27;20397;-68
2022/03/28 05:21:11;;;;;;;37.20;21.00;;;;;;;;;;5134804;27;20023;-69
2022/03/28 05:23:37;;;;;;;45.17;21.13;;;;;;;;;;5127425;27;20015;-68
2022/03/28 05:26:02;;;;;;;48.00;19.73;;;;;;;;;;5144450;27;20017;-68
2022/03/28 05:28:27;;;;;;;42.13;21.48;;;;;;;;;;5108876;27;20269;-67
2022/03/28 05:30:52;;;;;;;37.25;21.10;;;;;;;;;;5143240;27;20407;-69
2022/03/28 05:33:18;;;;;;;34.45;21.00;;;;;;;;;;5143501;27;20027;-69
2022/03/28 05:35:44;;;;;;;41.35;21.70;;;;;;;;;;5142105;27;20031;-69
2022/03/28 05:38:09;;;;;;;36.05;21.30;;;;;;;;;;5123294;27;20401;-70
2022/03/28 05:40:35;;;;;;;36.75;19.13;;;;;;;;;;5124449;27;20212;-69
2022/03/28 05:43:01;;;;;;;51.63;21.13;;;;;;;;;;5109119;27;20042;-69
2022/03/28 05:45:27;;;;;;;32.15;19.17;;;;;;;;;;5128210;27;20029;-69
2022/03/28 05:47:52;;;;;;;38.90;20.67;;;;;;;;;;5140157;27;20030;-68
2022/03/28 05:50:18;;;;;;;39.08;22.15;;;;;;;;;;5145570;27;20027;-69
2022/03/28 05:52:44;;;;;;;34.90;18.88;;;;;;;;;;5110112;27;20068;-68
2022/03/28 05:55:09;;;;;;;37.20;20.95;;;;;;;;;;5122414;27;20015;-68
2022/03/28 05:57:35;;;;;;;47.88;21.65;;;;;;;;;;5124298;27;20030;-68
2022/03/28 06:00:00;;;;;;;39.80;21.70;;;;;;;;;;5088628;27;20061;-68
2022/03/28 06:02:25;;;;;;;51.30;23.60;;;;;;;;;;5121343;27;20080;-69
2022/03/28 06:04:51;;;;;;;38.58;21.80;;;;;;;;;;5085943;27;20497;-69
2022/03/28 06:07:17;;;;;;;39.13;22.25;;;;;;;;;;5102696;27;20030;-69
2022/03/28 06:09:42;;;;;;;42.15;22.90;;;;;;;;;;5121210;27;20107;-68
2022/03/28 06:12:08;;;;;;;40.63;21.50;;;;;;;;;;5122591;27;20039;-69
2022/03/28 06:14:34;;;;;;;36.53;18.52;;;;;;;;;;5104986;27;20038;-69
2022/03/28 06:16:59;;;;;;;56.38;19.27;;;;;;;;;;5100494;27;20132;-68
2022/03/28 06:19:25;;;;;;;59.25;21.38;;;;;;;;;;5105954;27;20087;-68
2022/03/28 06:21:50;;;;;;;35.58;20.27;;;;;;;;;;5101061;27;20427;-68
2022/03/28 06:24:16;;;;;;;42.90;21.05;;;;;;;;;;5086124;27;20043;-68
2022/03/28 06:26:41;;;;;;;57.42;23.15;;;;;;;;;;5122598;27;20080;-69
2022/03/28 06:29:09;;;;;;;46.00;23.30;;;;;;;;;;5127741;27;20016;-67
2022/03/28 06:31:35;;;;;;;41.53;22.80;;;;;;;;;;5120575;27;20487;-68
2022/03/28 06:34:03;;;;;;;57.75;23.02;;;;;;;;;;5083874;27;20088;-69
2022/03/28 06:36:29;;;;;;;40.20;20.88;;;;;;;;;;5103312;27;20034;-69
2022/03/28 06:38:55;;;;;;;81.32;23.00;;;;;;;;;;5121334;27;20035;-69
2022/03/28 06:41:21;;;;;;;46.58;22.25;;;;;;;;;;5103519;27;20308;-69
2022/03/28 06:43:46;;;;;;;54.83;23.13;;;;;;;;;;5102116;27;20023;-69
2022/03/28 06:46:12;;;;;;;50.97;21.95;;;;;;;;;;5104147;27;20087;-69
2022/03/28 06:48:37;;;;;;;40.75;21.70;;;;;;;;;;5120970;27;20051;-69
2022/03/28 06:51:03;;;;;;;40.83;21.00;;;;;;;;;;5101726;27;20037;-69
2022/03/28 06:53:28;;;;;;;56.28;21.75;;;;;;;;;;5106044;27;20026;-68
2022/03/28 06:55:54;;;;;;;36.90;20.90;;;;;;;;;;5140653;27;20027;-68
2022/03/28 06:58:19;;;;;;;39.90;21.60;;;;;;;;;;5144292;27;20018;-68
2022/03/28 07:00:44;;;;;;;54.53;24.30;;;;;;;;;;5141581;27;20129;-69
2022/03/28 07:03:10;;;;;;;37.78;20.40;;;;;;;;;;5142823;27;20034;-68
2022/03/28 07:05:35;;;;;;;37.45;20.50;;;;;;;;;;5140495;27;20075;-70
2022/03/28 07:08:00;;;;;;;39.88;20.27;;;;;;;;;;5141109;27;20058;-67
2022/03/28 07:10:26;;;;;;;35.08;21.98;;;;;;;;;;5144840;27;20097;-68
2022/03/28 07:12:53;;;;;;;40.15;22.17;;;;;;;;;;5143052;27;20021;-68
2022/03/28 07:15:18;;;;;;;63.10;24.33;;;;;;;;;;5143820;27;20023;-69
2022/03/28 07:17:48;;;;;;;41.88;22.55;;;;;;;;;;5142057;27;20026;-68
2022/03/28 07:20:14;;;;;;;44.13;22.67;;;;;;;;;;5125970;27;20162;-69
2022/03/28 07:22:40;;;;;;;43.33;22.75;;;;;;;;;;5122065;27;20394;-68
2022/03/28 07:25:06;;;;;;;39.88;21.35;;;;;;;;;;5104339;27;20514;-69
2022/03/28 07:27:35;;;;;;;42.13;21.25;;;;;;;;;;5109059;27;20039;-69
2022/03/28 07:30:01;;;;;;;36.65;21.48;;;;;;;;;;5107623;27;20334;-69
2022/03/28 07:32:27;;;;;;;36.35;19.55;;;;;;;;;;5090992;27;20072;-69
2022/03/28 07:34:52;;;;;;;37.45;21.00;;;;;;;;;;5126100;27;20027;-69
2022/03/28 07:37:17;;;;;;;36.83;21.65;;;;;;;;;;5088722;27;20479;-69
2022/03/28 07:39:44;;;;;;;39.03;22.40;;;;;;;;;;5105480;27;20034;-69
2022/03/28 07:42:10;;;;;;;39.28;21.65;;;;;;;;;;5089731;27;20035;-69
2022/03/28 07:44:35;;;;;;;41.10;22.25;;;;;;;;;;5108282;27;20462;-68
2022/03/28 07:47:03;;;;;;;38.67;22.00;;;;;;;;;;5123825;27;20067;-69
2022/03/28 07:49:30;;;;;;;35.08;20.58;;;;;;;;;;5126686;27;20023;-70
2022/03/28 07:51:55;;;;;;;35.30;21.20;;;;;;;;;;5103499;27;20370;-69
2022/03/28 07:54:20;;;;;;;36.78;22.33;;;;;;;;;;5106458;27;20031;-70
2022/03/28 07:56:46;;;;;;;39.42;22.08;;;;;;;;;;5106027;27;20034;-68
2022/03/28 07:59:12;;;;;;;38.47;21.60;;;;;;;;;;5106031;27;20039;-69
2022/03/28 08:01:38;;;;;;;37.00;22.10;;;;;;;;;;5126123;27;20038;-70
2022/03/28 08:04:05;;;;;;;38.78;22.00;;;;;;;;;;5087034;27;20271;-69
2022/03/28 08:06:30;;;;;;;31.83;21.17;;;;;;;;;;5105567;27;20133;-68
2022/03/28 08:08:55;;;;;;;32.78;21.23;;;;;;;;;;5122315;27;20023;-68
2022/03/28 08:11:21;;;;;;;31.73;20.88;;;;;;;;;;5125479;27;20414;-68
2022/03/28 08:13:47;;;;;;;34.75;22.25;;;;;;;;;;5124345;27;20015;-68
2022/03/28 08:16:13;;;;;;;33.03;20.55;;;;;;;;;;5087713;27;20027;-69
2022/03/28 08:18:39;;;;;;;35.20;20.35;;;;;;;;;;5123099;27;20091;-69
2022/03/28 08:21:04;;;;;;;40.58;22.42;;;;;;;;;;5121745;27;20027;-68
2022/03/28 08:23:29;;;;;;;34.63;21.52;;;;;;;;;;5105347;27;20042;-68
2022/03/28 08:25:55;;;;;;;33.65;21.25;;;;;;;;;;5089132;27;20034;-67
2022/03/28 08:28:20;;;;;;;35.83;22.80;;;;;;;;;;5107744;27;20110;-69
2022/03/28 08:30:46;;;;;;;32.63;21.33;;;;;;;;;;5106810;27;20023;-68
2022/03/28 08:33:11;;;;;;;38.28;22.65;;;;;;;;;;5122177;27;20142;-69
2022/03/28 08:35:36;;;;;;;31.67;20.55;;;;;;;;;;5123692;27;20019;-69
2022/03/28 08:38:02;;;;;;;29.35;20.25;;;;;;;;;;5123485;27;20115;-68
2022/03/28 08:40:27;;;;;;;31.92;20.70;;;;;;;;;;5147386;27;20114;-68
2022/03/28 08:42:53;;;;;;;35.65;21.45;;;;;;;;;;5127112;27;20027;-68
2022/03/28 08:45:18;;;;;;;30.95;20.10;;;;;;;;;;5126485;27;20033;-68
2022/03/28 08:47:45;;;;;;;34.67;21.65;;;;;;;;;;5144028;27;20374;-69
2022/03/28 08:50:11;;;;;;;38.78;22.05;;;;;;;;;;5144632;27;20038;-69
2022/03/28 08:52:38;;;;;;;34.47;22.30;;;;;;;;;;5143785;27;20038;-69
2022/03/28 08:55:04;;;;;;;30.55;20.50;;;;;;;;;;5125743;27;20429;-69
2022/03/28 08:57:29;;;;;;;32.95;21.48;;;;;;;;;;5146172;27;20030;-69
2022/03/28 08:59:55;;;;;;;32.00;21.45;;;;;;;;;;5126381;27;20514;-68
2022/03/28 09:02:42;;;;;;;29.25;20.38;;;;;;;;;;5102337;27;20023;-69
2022/03/28 09:05:18;;;;;;;35.17;22.00;;;;;;;;;;5105527;27;20026;-69
2022/03/28 09:07:44;;;;;;;37.63;22.38;;;;;;;;;;5104580;27;20063;-68
2022/03/28 09:10:17;;;;;;;30.88;20.52;;;;;;;;;;5124071;27;20015;-68
2022/03/28 09:13:01;;;;;;;35.42;22.02;;;;;;;;;;5126427;27;20098;-70
2022/03/28 09:15:47;;;;;;;32.08;20.90;;;;;;;;;;5127075;27;20431;-69
2022/03/28 09:18:19;;;;;;;35.20;22.15;;;;;;;;;;5104053;27;20035;-70
2022/03/28 09:20:47;;;;;;;34.47;22.63;;;;;;;;;;5122290;27;20423;-68
2022/03/28 09:23:45;;;;;;;32.67;20.73;;;;;;;;;;5123223;27;20107;-68
2022/03/28 09:26:18;;;;;;;36.45;20.30;;;;;;;;;;5050491;27;20045;-68
2022/03/28 09:28:54;;;;;;;29.95;20.88;;;;;;;;;;5124218;27;20472;-68
2022/03/28 09:31:20;;;;;;;29.35;19.90;;;;;;;;;;5104678;27;20146;-70
2022/03/28 09:34:00;;;;;;;27.98;18.98;;;;;;;;;;5103648;27;20537;-69
2022/03/28 09:36:44;;;;;;;31.63;20.70;;;;;;;;;;5122579;27;20035;-69
2022/03/28 09:39:20;;;;;;;29.05;19.33;;;;;;;;;;5122965;27;20023;-69
2022/03/28 09:42:01;;;;;;;30.40;19.52;;;;;;;;;;5104998;27;20023;-68
2022/03/28 09:44:32;;;;;;;27.98;19.23;;;;;;;;;;5125578;27;20178;-69
2022/03/28 09:47:04;;;;;;;28.30;19.77;;;;;;;;;;5119640;27;20106;-70
2022/03/28 09:49:29;;;;;;;31.08;20.27;;;;;;;;;;5125065;27;20156;-69
2022/03/28 09:52:01;;;;;;;30.02;20.67;;;;;;;;;;5109744;27;20113;-69
2022/03/28 09:54:28;;;;;;;29.95;20.08;;;;;;;;;;5123540;27;20102;-69
2022/03/28 09:57:10;;;;;;;29.65;19.70;;;;;;;;;;5123209;27;20114;-69
2022/03/28 09:59:39;;;;;;;30.70;20.98;;;;;;;;;;5125366;27;20015;-68
2022/03/28 10:02:21;;;;;;;31.70;20.83;;;;;;;;;;5119852;27;20537;-68
2022/03/28 10:04:48;;;;;;;31.38;21.13;;;;;;;;;;5139791;27;20014;-70
2022/03/28 10:07:13;;;;;;;26.83;20.33;;;;;;;;;;5121582;27;20458;-70
2022/03/28 10:09:39;;;;;;;30.92;20.73;;;;;;;;;;5110284;27;20093;-70
2022/03/28 10:12:06;;;;;;;28.80;20.35;;;;;;;;;;5120172;27;20023;-68
2022/03/28 10:14:31;;;;;;;30.25;21.00;;;;;;;;;;5121478;27;20428;-69
2022/03/28 10:16:56;;;;;;;30.25;20.88;;;;;;;;;;5121639;27;20092;-69
2022/03/28 10:19:23;;;;;;;30.10;21.40;;;;;;;;;;5104213;27;20080;-69
2022/03/28 10:21:48;;;;;;;27.85;20.35;;;;;;;;;;5122170;27;20040;-70
2022/03/28 10:24:15;;;;;;;32.15;20.85;;;;;;;;;;5102880;27;20019;-70
2022/03/28 10:26:45;;;;;;;31.48;20.98;;;;;;;;;;5123470;27;20031;-69
2022/03/28 10:29:15;;;;;;;30.52;20.80;;;;;;;;;;5142867;27;20033;-70
2022/03/28 10:31:56;;;;;;;29.75;19.70;;;;;;;;;;5126467;27;20106;-69
2022/03/28 10:34:39;;;;;;;28.00;19.40;;;;;;;;;;5145299;27;20022;-69
2022/03/28 10:37:23;;;;;;;31.77;20.13;;;;;;;;;;5120309;27;20059;-68
2022/03/28 10:39:49;;;;;;;31.85;19.98;;;;;;;;;;5123347;27;20097;-68
2022/03/28 10:42:22;;;;;;;30.70;19.33;;;;;;;;;;5123025;27;20458;-69
2022/03/28 10:45:02;;;;;;;29.70;19.70;;;;;;;;;;5126870;27;20026;-69
2022/03/28 10:47:39;;;;;;;31.65;20.10;;;;;;;;;;5103793;27;20118;-69
2022/03/28 10:50:04;;;;;;;32.60;19.58;;;;;;;;;;5123906;27;20007;-69
2022/03/28 10:52:30;;;;;;;27.00;18.58;;;;;;;;;;5122062;27;20470;-68
2022/03/28 10:54:55;;;;;;;30.70;17.90;;;;;;;;;;5103338;27;20391;-68
2022/03/28 10:57:24;;;;;;;25.88;18.25;;;;;;;;;;5122537;27;20034;-68
2022/03/28 11:00:00;;;;;;;31.00;17.80;;;;;;;;;;5109564;27;20030;-69
2022/03/28 11:02:29;;;;;;;25.70;17.85;;;;;;;;;;5106556;27;20083;-69
2022/03/28 11:05:04;;;;;;;28.25;18.33;;;;;;;;;;5129218;27;20068;-69
2022/03/28 11:07:29;;;;;;;26.30;18.27;;;;;;;;;;5124830;27;20019;-71
2022/03/28 11:10:03;;;;;;;31.20;19.45;;;;;;;;;;5142251;27;20075;-68
2022/03/28 11:12:32;;;;;;;33.17;18.70;;;;;;;;;;5130145;27;20042;-69
2022/03/28 11:14:59;;;;;;;28.02;18.13;;;;;;;;;;5129658;27;20060;-71
2022/03/28 11:17:29;;;;;;;30.05;18.48;;;;;;;;;;5145357;27;20026;-70
2022/03/28 11:20:00;;;;;;;27.02;18.42;;;;;;;;;;5148923;27;20019;-68
2022/03/28 11:22:47;;;;;;;25.77;18.02;;;;;;;;;;5144209;27;20317;-69
2022/03/28 11:25:28;;;;;;;29.25;19.50;;;;;;;;;;5108495;27;20023;-68
2022/03/28 11:28:11;;;;;;;34.40;23.10;;;;;;;;;;5129420;27;20048;-68
2022/03/28 11:30:39;;;;;;;36.35;24.20;;;;;;;;;;5147325;27;20516;-70
2022/03/28 11:33:08;;;;;;;32.05;24.20;;;;;;;;;;5144857;27;20018;-69
2022/03/28 11:35:34;;;;;;;34.17;23.45;;;;;;;;;;5145334;27;20366;-68
2022/03/28 11:38:00;;;;;;;37.17;23.92;;;;;;;;;;5125873;27;20150;-69
2022/03/28 11:40:35;;;;;;;32.17;24.17;;;;;;;;;;5128246;27;20468;-69
2022/03/28 11:43:00;;;;;;;32.25;23.00;;;;;;;;;;5145719;27;20298;-68
2022/03/28 11:45:26;;;;;;;34.47;22.60;;;;;;;;;;5146652;27;20512;-68
2022/03/28 11:47:52;;;;;;;36.00;24.58;;;;;;;;;;5144964;27;20337;-69
2022/03/28 11:50:18;;;;;;;37.00;26.70;;;;;;;;;;5147188;27;20157;-69
2022/03/28 11:52:51;;;;;;;34.53;24.20;;;;;;;;;;5126314;27;20055;-68
2022/03/28 11:55:17;;;;;;;32.53;22.48;;;;;;;;;;5125537;27;20010;-69
2022/03/28 12:00:31;;;;;;;29.73;21.77;;;;;;;;;;5146982;27;20392;-68
2022/03/28 12:02:57;;;;;;;32.30;22.38;;;;;;;;;;5145087;27;20027;-69
2022/03/28 12:05:32;;;;;;;30.15;22.02;;;;;;;;;;5108735;27;20027;-67
2022/03/28 12:07:59;;;;;;;29.15;21.27;;;;;;;;;;5145884;27;20026;-68
2022/03/28 12:10:25;;;;;;;32.78;21.27;;;;;;;;;;5128281;27;20159;-69
2022/03/28 12:12:50;;;;;;;27.52;20.55;;;;;;;;;;5128214;27;20015;-67
2022/03/28 12:15:29;;;;;;;30.77;21.15;;;;;;;;;;5110863;27;20079;-68
2022/03/28 12:17:57;;;;;;;30.98;21.40;;;;;;;;;;5144494;27;20031;-69
2022/03/28 12:20:23;;;;;;;33.08;22.55;;;;;;;;;;5144332;27;20095;-69
2022/03/28 12:22:50;;;;;;;36.15;23.45;;;;;;;;;;5127930;27;20014;-69
2022/03/28 12:25:23;;;;;;;34.28;22.42;;;;;;;;;;5126289;27;20054;-67
2022/03/28 12:27:53;;;;;;;33.50;22.13;;;;;;;;;;5146905;27;20023;-68
2022/03/28 12:30:18;;;;;;;31.55;21.05;;;;;;;;;;5146946;27;20014;-67
2022/03/28 12:32:44;;;;;;;37.28;23.50;;;;;;;;;;5109077;27;20047;-68
2022/03/28 12:35:10;;;;;;;37.17;23.17;;;;;;;;;;5128326;27;20449;-68
2022/03/28 12:37:36;;;;;;;31.77;22.65;;;;;;;;;;5125191;27;20051;-68
2022/03/28 12:40:01;;;;;;;34.88;22.77;;;;;;;;;;5109187;27;20019;-71
2022/03/28 12:42:27;;;;;;;35.05;22.77;;;;;;;;;;5144619;27;20378;-69
2022/03/28 12:44:54;;;;;;;35.42;21.35;;;;;;;;;;5147616;27;20072;-74
2022/03/28 12:47:19;;;;;;;27.42;20.83;;;;;;;;;;5125044;27;20050;-70
2022/03/28 12:49:45;;;;;;;30.45;21.70;;;;;;;;;;5111076;27;20054;-68
2022/03/28 12:52:11;;;;;;;31.13;21.25;;;;;;;;;;5144021;27;20375;-69
2022/03/28 12:54:37;;;;;;;27.65;20.33;;;;;;;;;;5121781;27;20015;-69
2022/03/28 12:57:02;;;;;;;27.13;20.63;;;;;;;;;;5125641;27;20023;-68
2022/03/28 12:59:34;;;;;;;35.33;22.63;;;;;;;;;;5137311;27;20150;-68
2022/03/28 13:02:12;;;;;;;36.65;23.58;;;;;;;;;;5143605;27;20026;-68
2022/03/28 13:04:41;;;;;;;34.97;23.67;;;;;;;;;;5110611;27;20130;-67
2022/03/28 13:07:06;;;;;;;33.60;21.42;;;;;;;;;;5143558;27;20055;-67
2022/03/28 13:09:32;;;;;;;33.03;21.50;;;;;;;;;;5142682;27;20022;-69
2022/03/28 13:12:06;;;;;;;28.52;19.50;;;;;;;;;;5145283;27;20026;-68
2022/03/28 13:14:32;;;;;;;26.25;19.38;;;;;;;;;;5125316;27;20133;-68
2022/03/28 13:17:06;;;;;;;29.30;18.83;;;;;;;;;;5143202;27;20098;-70
2022/03/28 13:19:31;;;;;;;26.40;18.70;;;;;;;;;;5145159;27;20481;-68
2022/03/28 13:21:57;;;;;;;26.90;18.75;;;;;;;;;;5123110;27;20057;-69
2022/03/28 13:24:26;;;;;;;27.13;19.73;;;;;;;;;;5125960;27;20022;-68
2022/03/28 13:28:01;;;;;;;30.63;20.90;;;;;;;;;;5131375;27;20146;-69
2022/03/28 13:29:39;;;;;;;28.30;19.08;;;;;;;;;;5123571;27;20494;-68
2022/03/28 13:32:04;;;;;;;29.95;19.40;;;;;;;;;;5103787;27;20023;-69
2022/03/28 13:34:29;;;;;;;30.02;19.25;;;;;;;;;;5122068;27;20331;-68
2022/03/28 13:36:55;;;;;;;28.00;19.42;;;;;;;;;;5103285;27;20485;-68
2022/03/28 13:39:20;;;;;;;27.83;17.60;;;;;;;;;;5121059;27;20134;-68
2022/03/28 13:41:46;;;;;;;27.20;18.30;;;;;;;;;;5122238;27;20084;-68
2022/03/28 13:44:11;;;;;;;27.38;18.67;;;;;;;;;;5124961;27;20492;-68
2022/03/28 13:46:37;;;;;;;26.67;17.77;;;;;;;;;;5104112;27;20191;-68
2022/03/28 13:49:02;;;;;;;29.13;17.92;;;;;;;;;;5122670;27;20477;-69
2022/03/28 13:51:28;;;;;;;25.95;16.73;;;;;;;;;;5102348;27;20082;-68
2022/03/28 13:53:55;;;;;;;24.52;16.67;;;;;;;;;;5122093;27;20373;-70
2022/03/28 13:56:21;;;;;;;28.52;17.52;;;;;;;;;;5123582;27;20027;-69
2022/03/28 13:58:46;;;;;;;28.48;17.50;;;;;;;;;;5106954;27;20022;-70
2022/03/28 14:01:11;;;;;;;29.63;17.02;;;;;;;;;;5088216;27;20397;-71
2022/03/28 14:03:38;;;;;;;24.88;15.93;;;;;;;;;;5121361;27;20067;-69
2022/03/28 14:06:04;;;;;;;24.95;16.75;;;;;;;;;;5105717;27;20114;-70
2022/03/28 14:08:33;;;;;;;31.58;18.38;;;;;;;;;;5104152;27;20134;-69
2022/03/28 14:10:58;;;;;;;30.75;18.45;;;;;;;;;;5137748;27;20338;-69
2022/03/28 14:13:23;;;;;;;30.10;18.17;;;;;;;;;;5146895;27;20022;-69
2022/03/28 14:15:49;;;;;;;30.25;17.45;;;;;;;;;;5128363;27;20060;-69
2022/03/28 14:18:15;;;;;;;32.80;18.73;;;;;;;;;;5145086;27;20030;-68
2022/03/28 14:20:40;;;;;;;33.65;18.95;;;;;;;;;;5144857;27;20069;-70
2022/03/28 14:23:06;;;;;;;33.00;20.30;;;;;;;;;;5144732;27;20031;-69